Time;durP1;ratioP1;P1;durP2;ratioP2;P2;SDS_P1;SDS_P2;PMS_P1;PMS_P2;Temp;Humidity;BMP_temperature;BMP_pressure;BME280_temperature;BME280_humidity;BME280_pressure;Samples;Min_cycle;Max_cycle;Signal;HPM_P1;HPM_P2
2021/12/06 00:00:20;;;;;;;30.83;21.03;;;4.90;99.90;;;;;;5071400;28;20221;-81
2021/12/06 00:02:47;;;;;;;36.77;21.83;;;4.90;99.90;;;;;;5071715;28;20197;-82
2021/12/06 00:05:16;;;;;;;42.00;24.90;;;4.90;99.90;;;;;;5071655;28;20208;-84
2021/12/06 00:07:44;;;;;;;38.87;24.73;;;5.00;99.90;;;;;;5070367;28;20628;-85
2021/12/06 00:10:13;;;;;;;47.67;25.47;;;5.10;99.90;;;;;;5068462;28;20283;-86
2021/12/06 00:12:41;;;;;;;37.93;23.20;;;5.00;99.90;;;;;;5050479;28;20206;-85
2021/12/06 00:15:11;;;;;;;46.10;25.27;;;5.00;99.90;;;;;;5050125;28;20662;-86
2021/12/06 00:17:38;;;;;;;43.00;26.37;;;5.00;99.90;;;;;;5062097;28;20209;-86
2021/12/06 00:20:07;;;;;;;41.83;26.17;;;5.00;99.90;;;;;;5069829;28;20240;-85
2021/12/06 00:22:33;;;;;;;47.77;27.40;;;5.00;99.90;;;;;;5069813;28;20201;-84
2021/12/06 00:25:00;;;;;;;47.23;26.27;;;5.00;99.90;;;;;;5069133;28;20224;-80
2021/12/06 00:27:28;;;;;;;45.17;25.53;;;4.90;99.90;;;;;;5069451;28;20813;-84
2021/12/06 00:29:56;;;;;;;46.00;26.10;;;4.90;99.90;;;;;;5050109;28;20376;-84
2021/12/06 00:32:24;;;;;;;44.47;27.33;;;4.90;99.90;;;;;;5049866;28;20305;-84
2021/12/06 00:34:51;;;;;;;45.57;26.50;;;4.90;99.90;;;;;;5049761;28;20822;-79
2021/12/06 00:37:21;;;;;;;40.97;25.50;;;5.00;99.90;;;;;;5050214;28;20286;-82
2021/12/06 00:39:50;;;;;;;44.27;25.60;;;5.00;99.90;;;;;;5051471;28;20653;-85
2021/12/06 00:42:18;;;;;;;43.87;26.40;;;5.00;99.90;;;;;;5069609;28;20205;-85
2021/12/06 00:44:45;;;;;;;41.67;25.23;;;5.00;99.90;;;;;;5069497;28;20272;-84
2021/12/06 00:47:12;;;;;;;40.27;24.80;;;5.00;99.90;;;;;;5069539;28;20255;-85
2021/12/06 00:49:41;;;;;;;39.87;24.73;;;5.00;99.90;;;;;;5069234;28;20259;-84
2021/12/06 00:52:08;;;;;;;42.97;25.87;;;5.10;99.90;;;;;;5069599;28;20213;-85
2021/12/06 00:54:35;;;;;;;44.93;26.73;;;5.00;99.90;;;;;;5061145;28;20209;-83
2021/12/06 00:57:04;;;;;;;41.73;25.23;;;5.00;99.90;;;;;;5048018;28;20550;-83
2021/12/06 00:59:30;;;;;;;41.30;26.03;;;5.00;99.90;;;;;;5048898;28;20209;-79
2021/12/06 01:02:00;;;;;;;40.03;23.97;;;5.00;99.90;;;;;;5053689;28;20895;-84
2021/12/06 01:04:27;;;;;;;36.27;23.97;;;4.90;99.90;;;;;;5067801;28;20615;-84
2021/12/06 01:06:56;;;;;;;42.50;25.97;;;4.90;99.90;;;;;;5068509;28;20205;-82
2021/12/06 01:09:22;;;;;;;42.23;25.97;;;4.90;99.90;;;;;;5068000;28;20215;-83
2021/12/06 01:11:49;;;;;;;45.03;26.63;;;4.90;99.90;;;;;;5069194;28;20224;-82
2021/12/06 01:14:17;;;;;;;41.67;26.03;;;4.90;99.90;;;;;;5069102;28;20218;-82
2021/12/06 01:16:43;;;;;;;43.57;25.30;;;5.00;99.90;;;;;;5055158;28;20210;-80
2021/12/06 01:19:10;;;;;;;42.93;25.03;;;5.00;99.90;;;;;;5049422;28;20202;-79
2021/12/06 01:21:45;;;;;;;39.93;25.73;;;5.00;99.90;;;;;;5052220;28;20220;-82
2021/12/06 01:24:16;;;;;;;38.67;24.37;;;5.00;99.90;;;;;;5051537;28;20259;-82
2021/12/06 01:27:12;;;;;;;41.77;24.40;;;5.00;99.90;;;;;;5052041;28;20545;-81
2021/12/06 01:30:03;;;;;;;37.80;23.47;;;5.10;99.90;;;;;;5034158;28;20198;-79
2021/12/06 01:33:06;;;;;;;35.47;22.53;;;5.10;99.90;;;;;;5052673;28;20198;-79
2021/12/06 01:41:05;;;;;;;32.87;20.00;;;5.00;99.90;;;;;;5062708;28;20255;-84
2021/12/06 01:43:32;;;;;;;32.90;22.10;;;4.90;99.90;;;;;;5052621;28;20213;-83
2021/12/06 01:45:59;;;;;;;34.60;22.07;;;4.90;99.90;;;;;;5052584;28;20587;-83
2021/12/06 01:48:26;;;;;;;36.10;22.80;;;4.90;99.90;;;;;;5052815;28;20205;-82
2021/12/06 01:50:53;;;;;;;32.23;21.37;;;4.90;99.90;;;;;;5053478;28;20237;-82
2021/12/06 01:53:19;;;;;;;33.97;21.17;;;4.90;99.90;;;;;;5072631;28;20513;-86
2021/12/06 01:55:47;;;;;;;35.20;22.67;;;4.90;99.90;;;;;;5071147;28;20517;-82
2021/12/06 01:58:15;;;;;;;34.23;21.77;;;4.90;99.90;;;;;;5071957;28;20201;-82
2021/12/06 02:00:46;;;;;;;34.67;22.03;;;4.90;99.90;;;;;;5071313;28;20244;-81
2021/12/06 02:03:13;;;;;;;34.13;21.00;;;4.90;99.90;;;;;;5054911;28;20224;-80
2021/12/06 02:05:42;;;;;;;31.23;21.70;;;4.90;99.90;;;;;;5050799;28;20202;-80
2021/12/06 02:08:10;;;;;;;29.77;19.77;;;4.90;99.90;;;;;;5051151;28;20210;-80
2021/12/06 02:10:38;;;;;;;34.03;21.63;;;4.80;99.90;;;;;;5067785;28;20216;-84
2021/12/06 02:13:07;;;;;;;31.93;21.10;;;4.80;99.90;;;;;;5071662;28;20212;-82
2021/12/06 02:15:42;;;;;;;32.00;21.63;;;4.80;99.90;;;;;;5070554;28;20320;-81
2021/12/06 02:18:14;;;;;;;39.47;21.70;;;4.90;99.90;;;;;;5071103;28;20281;-83
2021/12/06 02:20:47;;;;;;;32.80;21.53;;;4.80;99.90;;;;;;5071221;28;20614;-83
2021/12/06 02:23:17;;;;;;;30.53;19.57;;;4.80;99.90;;;;;;5071231;28;20789;-83
2021/12/06 02:25:44;;;;;;;33.83;21.90;;;4.80;99.90;;;;;;5069554;28;20197;-82
2021/12/06 02:28:11;;;;;;;35.37;20.07;;;4.80;99.90;;;;;;5071684;28;20197;-85
2021/12/06 02:30:38;;;;;;;33.23;20.37;;;4.80;99.90;;;;;;5054905;28;20511;-79
2021/12/06 02:33:05;;;;;;;33.50;22.40;;;4.80;99.90;;;;;;5049974;28;20259;-79
2021/12/06 02:35:32;;;;;;;32.77;20.67;;;4.80;99.90;;;;;;5055428;28;20216;-79
2021/12/06 02:38:02;;;;;;;35.90;22.70;;;4.80;99.90;;;;;;5069096;28;20205;-80
2021/12/06 02:40:33;;;;;;;35.03;22.10;;;4.90;99.90;;;;;;5068270;28;20229;-79
2021/12/06 02:43:02;;;;;;;35.53;22.77;;;4.90;99.90;;;;;;5059422;28;20216;-79
2021/12/06 02:45:33;;;;;;;37.10;22.87;;;4.80;99.90;;;;;;5066246;28;20201;-81
2021/12/06 02:48:03;;;;;;;38.10;23.60;;;4.80;99.90;;;;;;5069370;28;20197;-83
2021/12/06 02:50:34;;;;;;;41.63;24.20;;;4.80;99.90;;;;;;5033781;28;20291;-80
2021/12/06 02:53:01;;;;;;;44.07;25.83;;;4.80;99.90;;;;;;5049484;28;20226;-82
2021/12/06 02:55:34;;;;;;;36.67;21.87;;;4.70;99.90;;;;;;5047960;28;20213;-80
2021/12/06 02:58:12;;;;;;;35.93;22.57;;;4.70;99.90;;;;;;5065948;28;20300;-81
2021/12/06 03:00:39;;;;;;;36.70;22.97;;;4.70;99.90;;;;;;5068918;28;20497;-81
2021/12/06 03:03:06;;;;;;;39.20;24.53;;;4.70;99.90;;;;;;5068543;28;20292;-82
2021/12/06 03:05:33;;;;;;;40.00;24.17;;;4.70;99.90;;;;;;5050583;28;20213;-80
2021/12/06 03:08:02;;;;;;;39.43;24.67;;;4.70;99.90;;;;;;5048336;28;20198;-81
2021/12/06 03:10:32;;;;;;;38.30;25.10;;;4.70;99.90;;;;;;5049113;28;20202;-80
2021/12/06 03:13:00;;;;;;;34.97;23.47;;;4.60;99.90;;;;;;5048291;28;20213;-78
2021/12/06 03:15:27;;;;;;;35.17;22.00;;;4.60;99.90;;;;;;5064003;28;20530;-83
2021/12/06 03:17:54;;;;;;;34.27;23.07;;;4.60;99.90;;;;;;5068708;28;20244;-83
2021/12/06 03:20:20;;;;;;;39.87;23.27;;;4.60;99.90;;;;;;5067898;28;20229;-80
2021/12/06 03:22:48;;;;;;;36.03;22.10;;;4.60;99.90;;;;;;5068162;28;20205;-80
2021/12/06 03:25:17;;;;;;;35.43;22.83;;;4.60;99.90;;;;;;5069436;28;20208;-81
2021/12/06 03:27:46;;;;;;;39.60;23.13;;;4.50;99.90;;;;;;5055269;28;20221;-84
2021/12/06 03:30:14;;;;;;;37.60;24.13;;;4.50;99.90;;;;;;5049553;28;20209;-84
2021/12/06 03:32:41;;;;;;;34.60;22.27;;;4.50;99.90;;;;;;5049841;28;20296;-80
2021/12/06 03:35:09;;;;;;;38.40;23.70;;;4.50;99.90;;;;;;5048621;28;20194;-85
2021/12/06 03:37:35;;;;;;;40.73;24.73;;;4.50;99.90;;;;;;5054659;28;20212;-84
2021/12/06 03:40:03;;;;;;;34.00;21.03;;;4.50;99.90;;;;;;5069846;28;20225;-82
2021/12/06 03:42:30;;;;;;;36.43;22.23;;;4.50;99.90;;;;;;5069119;28;20197;-80
2021/12/06 03:44:58;;;;;;;35.37;22.57;;;4.50;99.90;;;;;;5069868;28;20196;-80
2021/12/06 03:47:27;;;;;;;37.93;23.53;;;4.50;99.90;;;;;;5069541;28;20940;-82
2021/12/06 03:49:55;;;;;;;41.80;24.93;;;4.60;99.90;;;;;;5068264;28;20237;-82
2021/12/06 03:52:23;;;;;;;38.47;24.00;;;4.60;99.90;;;;;;5069405;28;20224;-83
2021/12/06 03:54:52;;;;;;;38.70;23.37;;;4.50;99.90;;;;;;5069622;28;20205;-85
2021/12/06 03:57:20;;;;;;;39.33;23.57;;;4.50;99.90;;;;;;5069094;28;20212;-82
2021/12/06 03:59:48;;;;;;;45.53;27.63;;;4.50;99.90;;;;;;5069184;28;20189;-80
2021/12/06 04:02:17;;;;;;;43.83;25.33;;;4.50;99.90;;;;;;5069825;28;20189;-83
2021/12/06 04:04:44;;;;;;;45.03;26.87;;;4.50;99.90;;;;;;5068619;28;20206;-82
2021/12/06 04:07:11;;;;;;;42.20;26.43;;;4.50;99.90;;;;;;5050271;28;20425;-80
2021/12/06 04:09:38;;;;;;;41.93;25.73;;;4.50;99.90;;;;;;5048671;28;20198;-82
2021/12/06 04:12:07;;;;;;;47.73;27.67;;;4.50;99.90;;;;;;5059085;28;20811;-81
2021/12/06 04:14:34;;;;;;;46.80;27.03;;;4.50;99.90;;;;;;5068577;28;20212;-82
2021/12/06 04:17:01;;;;;;;52.00;27.77;;;4.50;99.90;;;;;;5067891;28;20212;-82
2021/12/06 04:19:29;;;;;;;45.50;27.50;;;4.50;99.90;;;;;;5068737;28;20211;-85
2021/12/06 04:21:56;;;;;;;44.90;26.27;;;4.50;99.90;;;;;;5069445;28;20225;-82
2021/12/06 04:24:24;;;;;;;41.43;25.17;;;4.50;99.90;;;;;;5068728;28;20208;-82
2021/12/06 04:26:51;;;;;;;48.23;27.33;;;4.50;99.90;;;;;;5067587;28;20591;-85
2021/12/06 04:29:18;;;;;;;37.17;24.03;;;4.50;99.90;;;;;;5068297;28;20209;-81
2021/12/06 04:31:48;;;;;;;44.33;26.07;;;4.50;99.90;;;;;;5068482;28;20205;-82
2021/12/06 04:34:15;;;;;;;41.47;24.80;;;4.50;99.90;;;;;;5069126;28;20238;-81
2021/12/06 04:36:44;;;;;;;45.40;27.00;;;4.40;99.90;;;;;;5069561;28;20209;-79
2021/12/06 04:39:14;;;;;;;40.83;25.47;;;4.40;99.90;;;;;;5068435;28;20201;-83
2021/12/06 04:41:41;;;;;;;46.23;26.27;;;4.50;99.90;;;;;;5068956;28;20236;-81
2021/12/06 04:44:09;;;;;;;41.67;24.33;;;4.40;99.90;;;;;;5058088;28;20201;-82
2021/12/06 04:46:36;;;;;;;40.90;24.60;;;4.50;99.90;;;;;;5069067;28;20216;-84
2021/12/06 04:49:04;;;;;;;40.77;24.60;;;4.40;99.90;;;;;;5069105;28;20212;-81
2021/12/06 04:51:31;;;;;;;40.57;24.17;;;4.40;99.90;;;;;;5056195;28;20226;-80
2021/12/06 04:54:00;;;;;;;36.70;22.87;;;4.40;99.90;;;;;;5048018;28;20205;-81
2021/12/06 04:56:30;;;;;;;32.70;20.77;;;4.30;99.90;;;;;;5048227;28;20661;-84
2021/12/06 04:59:04;;;;;;;45.97;26.00;;;4.30;99.90;;;;;;5047769;28;20209;-80
2021/12/06 05:01:33;;;;;;;39.77;24.70;;;4.30;99.90;;;;;;5048554;28;20210;-82
2021/12/06 05:04:05;;;;;;;46.13;25.57;;;4.30;99.90;;;;;;5049146;28;20216;-83
2021/12/06 05:06:36;;;;;;;40.50;25.37;;;4.30;99.90;;;;;;5054327;28;20226;-82
2021/12/06 05:09:09;;;;;;;41.93;24.27;;;4.30;99.90;;;;;;5069028;28;20201;-83
2021/12/06 05:11:37;;;;;;;48.80;26.77;;;4.40;99.90;;;;;;5069060;28;20216;-86
2021/12/06 05:14:04;;;;;;;42.10;24.70;;;4.40;99.90;;;;;;5068766;28;20204;-82
2021/12/06 05:16:33;;;;;;;43.47;26.47;;;4.40;99.90;;;;;;5067985;28;20601;-83
2021/12/06 05:19:00;;;;;;;43.87;26.13;;;4.40;99.90;;;;;;5068923;28;20613;-82
2021/12/06 05:21:27;;;;;;;45.83;26.47;;;4.40;99.90;;;;;;5059627;28;20221;-83
2021/12/06 05:23:55;;;;;;;49.47;28.07;;;4.40;99.90;;;;;;5048871;28;20202;-82
2021/12/06 05:26:23;;;;;;;46.77;27.80;;;4.40;99.90;;;;;;5048657;28;20206;-81
2021/12/06 05:28:54;;;;;;;45.93;26.33;;;4.40;99.90;;;;;;5048468;28;20209;-81
2021/12/06 05:31:23;;;;;;;46.87;26.47;;;4.40;99.90;;;;;;5049176;28;20213;-84
2021/12/06 05:33:53;;;;;;;46.00;25.67;;;4.50;99.90;;;;;;5065804;28;20213;-81
2021/12/06 05:36:21;;;;;;;48.70;25.23;;;4.40;99.90;;;;;;5068837;28;20193;-81
2021/12/06 05:38:50;;;;;;;52.33;29.93;;;4.50;99.90;;;;;;5069213;28;20210;-82
2021/12/06 05:41:17;;;;;;;50.63;28.07;;;4.40;99.90;;;;;;5067917;28;20221;-83
2021/12/06 05:43:45;;;;;;;44.17;25.40;;;4.40;99.90;;;;;;5068313;28;20482;-81
2021/12/06 05:46:12;;;;;;;50.43;27.53;;;4.50;99.90;;;;;;5067845;28;20197;-82
2021/12/06 05:48:39;;;;;;;43.50;25.83;;;4.40;99.90;;;;;;5067754;28;20210;-83
2021/12/06 05:51:06;;;;;;;40.30;24.90;;;4.40;99.90;;;;;;5067504;28;20252;-81
2021/12/06 05:53:34;;;;;;;37.17;22.97;;;4.40;99.90;;;;;;5067860;28;20197;-83
2021/12/06 05:56:01;;;;;;;53.43;29.00;;;4.40;99.90;;;;;;5061460;28;20206;-81
2021/12/06 05:58:29;;;;;;;46.27;27.03;;;4.40;99.90;;;;;;5047418;28;20190;-79
2021/12/06 06:00:58;;;;;;;42.83;26.10;;;4.40;99.90;;;;;;5047850;28;20513;-80
2021/12/06 06:03:25;;;;;;;47.67;25.43;;;4.40;99.90;;;;;;5059025;28;20209;-81
2021/12/06 06:05:53;;;;;;;44.97;26.40;;;4.40;99.90;;;;;;5069976;28;20216;-79
2021/12/06 06:08:20;;;;;;;48.93;26.07;;;4.40;99.90;;;;;;5072038;28;20240;-81
2021/12/06 06:10:47;;;;;;;46.53;25.40;;;4.40;99.90;;;;;;5059359;28;20210;-82
2021/12/06 06:13:14;;;;;;;44.30;25.87;;;4.40;99.90;;;;;;5051823;28;20201;-79
2021/12/06 06:15:42;;;;;;;47.53;25.63;;;4.40;99.90;;;;;;5051477;28;20208;-83
2021/12/06 06:18:11;;;;;;;48.67;27.40;;;4.40;99.90;;;;;;5070525;28;20213;-83
2021/12/06 06:20:42;;;;;;;51.33;27.40;;;4.40;99.90;;;;;;5070803;28;20213;-82
2021/12/06 06:23:09;;;;;;;50.67;27.57;;;4.40;99.90;;;;;;5070296;28;20201;-82
2021/12/06 06:25:36;;;;;;;47.43;26.93;;;4.40;99.90;;;;;;5070889;28;20213;-79
2021/12/06 06:28:04;;;;;;;54.00;27.43;;;4.50;99.90;;;;;;5070426;28;20665;-78
2021/12/06 06:30:32;;;;;;;48.57;27.07;;;4.40;99.90;;;;;;5068987;28;20201;-81
2021/12/06 06:32:59;;;;;;;40.83;24.13;;;4.40;99.90;;;;;;5070703;28;20201;-79
2021/12/06 06:35:27;;;;;;;48.20;27.80;;;4.40;99.90;;;;;;5070723;28;20216;-80
2021/12/06 06:37:54;;;;;;;51.83;26.40;;;4.30;99.90;;;;;;5070842;28;20205;-81
2021/12/06 06:40:21;;;;;;;53.30;28.27;;;4.30;99.90;;;;;;5070751;28;20201;-83
2021/12/06 06:42:48;;;;;;;55.67;29.47;;;4.30;99.90;;;;;;5070455;28;20228;-83
2021/12/06 06:45:18;;;;;;;52.47;28.70;;;4.40;99.90;;;;;;5069817;28;20205;-85
2021/12/06 06:47:45;;;;;;;53.70;29.53;;;4.40;99.90;;;;;;5060016;28;20221;-82
2021/12/06 06:50:13;;;;;;;53.60;28.03;;;4.30;99.90;;;;;;5050785;28;20229;-81
2021/12/06 06:52:41;;;;;;;59.03;29.40;;;4.30;99.90;;;;;;5049448;28;20214;-81
2021/12/06 06:55:10;;;;;;;58.90;29.10;;;4.40;99.90;;;;;;5051132;28;20220;-82
2021/12/06 06:57:38;;;;;;;54.37;29.07;;;4.30;99.90;;;;;;5050493;28;20344;-79
2021/12/06 07:00:06;;;;;;;58.27;28.40;;;4.30;99.90;;;;;;5049581;28;20207;-79
2021/12/06 07:02:33;;;;;;;58.40;30.87;;;4.20;99.90;;;;;;5050232;28;20234;-83
2021/12/06 07:05:00;;;;;;;55.97;28.77;;;4.20;99.90;;;;;;5050879;28;20225;-83
2021/12/06 07:07:27;;;;;;;54.10;29.10;;;4.20;99.90;;;;;;5050303;28;20202;-83
2021/12/06 07:09:56;;;;;;;64.50;31.30;;;4.20;99.90;;;;;;5051291;28;20209;-82
2021/12/06 07:12:22;;;;;;;61.50;31.40;;;4.20;99.90;;;;;;5050295;28;20209;-79
2021/12/06 07:14:49;;;;;;;60.97;31.30;;;4.20;99.90;;;;;;5058706;28;20205;-83
2021/12/06 07:17:17;;;;;;;60.63;30.27;;;4.20;99.90;;;;;;5070338;28;20209;-81
2021/12/06 07:19:45;;;;;;;66.70;33.90;;;4.20;99.90;;;;;;5069453;28;20201;-79
2021/12/06 07:22:12;;;;;;;70.30;31.80;;;4.30;99.90;;;;;;5069293;28;20553;-81
2021/12/06 07:24:40;;;;;;;71.23;33.73;;;4.30;99.90;;;;;;5069561;28;20293;-81
2021/12/06 07:27:08;;;;;;;68.30;33.60;;;4.30;99.90;;;;;;5068871;28;20208;-83
2021/12/06 07:29:36;;;;;;;71.20;33.80;;;4.30;99.90;;;;;;5069235;28;20216;-80
2021/12/06 07:32:05;;;;;;;66.67;32.97;;;4.20;99.90;;;;;;5069686;28;20320;-81
2021/12/06 07:34:32;;;;;;;68.00;33.47;;;4.20;99.90;;;;;;5068386;28;20200;-82
2021/12/06 07:36:59;;;;;;;65.23;31.80;;;4.20;99.90;;;;;;5057478;28;20206;-83
2021/12/06 07:39:26;;;;;;;66.07;34.17;;;4.30;99.90;;;;;;5049670;28;20202;-80
2021/12/06 07:41:53;;;;;;;66.50;33.30;;;4.30;99.90;;;;;;5047929;28;20218;-81
2021/12/06 07:44:21;;;;;;;75.27;34.50;;;4.20;99.90;;;;;;5054218;28;20616;-82
2021/12/06 07:46:50;;;;;;;81.27;38.03;;;4.20;99.90;;;;;;5049083;28;20194;-79
2021/12/06 07:49:17;;;;;;;73.03;34.27;;;4.20;99.90;;;;;;5048425;28;20598;-82
2021/12/06 07:51:43;;;;;;;74.07;34.00;;;4.20;99.90;;;;;;5048547;28;20218;-82
2021/12/06 07:54:10;;;;;;;68.43;32.13;;;4.20;99.90;;;;;;5052426;28;20246;-80
2021/12/06 07:56:37;;;;;;;73.40;32.87;;;4.20;99.90;;;;;;5068861;28;20232;-81
2021/12/06 07:59:04;;;;;;;73.83;33.03;;;4.20;99.90;;;;;;5068102;28;20216;-84
2021/12/06 08:01:33;;;;;;;78.90;35.63;;;4.20;99.90;;;;;;5068662;28;20224;-80
2021/12/06 08:04:00;;;;;;;85.07;34.17;;;4.20;99.90;;;;;;5069100;28;20213;-81
2021/12/06 08:06:28;;;;;;;78.43;35.87;;;4.10;99.90;;;;;;5068125;28;20211;-82
2021/12/06 08:08:55;;;;;;;71.83;34.43;;;4.10;99.90;;;;;;5068938;28;20197;-81
2021/12/06 08:11:22;;;;;;;69.70;32.20;;;4.10;99.90;;;;;;5068742;28;20205;-79
2021/12/06 08:13:53;;;;;;;70.43;32.47;;;4.00;99.90;;;;;;5068764;28;20306;-82
2021/12/06 08:16:23;;;;;;;70.53;34.10;;;4.00;99.90;;;;;;5068195;28;20293;-81
2021/12/06 08:18:51;;;;;;;80.40;33.27;;;3.90;99.90;;;;;;5069068;28;20201;-81
2021/12/06 08:21:20;;;;;;;85.40;34.40;;;3.90;99.90;;;;;;5068238;28;20248;-81
2021/12/06 08:23:49;;;;;;;80.80;35.23;;;3.90;99.90;;;;;;5068518;28;20204;-82
2021/12/06 08:26:18;;;;;;;87.33;38.53;;;3.90;99.90;;;;;;5068761;28;20794;-81
2021/12/06 08:28:47;;;;;;;87.50;38.83;;;3.80;99.90;;;;;;5055990;28;20229;-80
2021/12/06 08:31:15;;;;;;;92.63;38.83;;;3.80;99.90;;;;;;5047967;28;20211;-84
2021/12/06 08:33:42;;;;;;;81.77;35.07;;;3.90;99.90;;;;;;5058636;28;20236;-81
2021/12/06 08:36:12;;;;;;;68.17;32.27;;;3.90;99.90;;;;;;5067629;28;20255;-81
2021/12/06 08:38:40;;;;;;;75.40;36.40;;;3.90;99.90;;;;;;5067442;28;20689;-82
2021/12/06 08:41:10;;;;;;;72.33;33.70;;;3.90;99.90;;;;;;5067047;28;20488;-82
2021/12/06 08:43:38;;;;;;;72.53;35.37;;;3.90;99.90;;;;;;5047788;28;20232;-81
2021/12/06 08:46:08;;;;;;;81.60;34.43;;;4.00;99.90;;;;;;5067944;28;20205;-81
2021/12/06 08:48:37;;;;;;;87.97;33.33;;;3.90;99.90;;;;;;5067762;28;20193;-83
2021/12/06 08:51:08;;;;;;;64.07;31.70;;;3.90;99.90;;;;;;5066791;28;20279;-82
2021/12/06 08:53:36;;;;;;;76.40;33.17;;;3.90;99.90;;;;;;5059552;28;20849;-80
2021/12/06 08:56:13;;;;;;;82.23;33.30;;;3.90;99.90;;;;;;5025648;28;20194;-85
2021/12/06 08:58:41;;;;;;;91.20;34.23;;;3.90;99.90;;;;;;5061928;28;20197;-81
2021/12/06 09:01:09;;;;;;;69.67;32.73;;;3.90;99.90;;;;;;5067490;28;20798;-83
2021/12/06 09:03:36;;;;;;;71.70;32.10;;;3.90;99.90;;;;;;5050200;28;20244;-82
2021/12/06 09:06:06;;;;;;;82.33;34.00;;;3.90;99.90;;;;;;5047044;28;20316;-83
2021/12/06 09:08:33;;;;;;;105.37;35.03;;;3.90;99.90;;;;;;5047131;28;20206;-80
2021/12/06 09:11:03;;;;;;;102.00;38.20;;;3.90;99.90;;;;;;5047926;28;20530;-82
2021/12/06 09:13:30;;;;;;;80.43;36.83;;;3.90;99.90;;;;;;5066661;28;20616;-82
2021/12/06 09:15:59;;;;;;;93.87;36.17;;;3.90;99.90;;;;;;5067933;28;20508;-82
2021/12/06 09:18:29;;;;;;;85.40;37.10;;;3.90;99.90;;;;;;5056544;28;20508;-81
2021/12/06 09:20:57;;;;;;;85.73;37.77;;;4.00;99.90;;;;;;5047526;28;20883;-81
2021/12/06 09:23:24;;;;;;;93.07;38.87;;;4.00;99.90;;;;;;5046102;28;20222;-81
2021/12/06 09:25:51;;;;;;;87.87;38.67;;;4.10;99.90;;;;;;5048306;28;20221;-82
2021/12/06 09:28:20;;;;;;;87.60;39.20;;;4.10;99.90;;;;;;5047425;28;20201;-81
2021/12/06 09:30:47;;;;;;;81.23;38.10;;;4.20;99.90;;;;;;5047073;28;20202;-81
2021/12/06 09:33:16;;;;;;;90.33;39.83;;;4.10;99.90;;;;;;5048116;28;20201;-80
2021/12/06 09:35:46;;;;;;;96.30;40.53;;;4.10;99.90;;;;;;5047927;28;20190;-83
2021/12/06 09:38:16;;;;;;;91.47;41.77;;;4.10;99.90;;;;;;5046898;28;20213;-81
2021/12/06 09:40:47;;;;;;;80.97;38.03;;;4.10;99.90;;;;;;5049146;28;20288;-80
2021/12/06 09:43:14;;;;;;;97.77;41.53;;;4.20;99.90;;;;;;5071873;28;20640;-82
2021/12/06 09:45:44;;;;;;;97.20;39.80;;;4.20;99.90;;;;;;5071940;28;20209;-82
2021/12/06 09:48:13;;;;;;;94.63;38.43;;;4.20;99.90;;;;;;5066011;28;20209;-83
2021/12/06 09:50:43;;;;;;;95.33;38.63;;;4.20;99.90;;;;;;5072210;28;20243;-83
2021/12/06 09:53:13;;;;;;;89.87;38.70;;;4.30;99.90;;;;;;5071539;28;20224;-80
2021/12/06 09:55:42;;;;;;;89.07;39.13;;;4.30;99.90;;;;;;5070652;28;20205;-83
2021/12/06 09:58:10;;;;;;;95.40;42.50;;;4.30;99.90;;;;;;5071495;28;20620;-81
2021/12/06 10:00:43;;;;;;;112.33;41.83;;;4.40;99.90;;;;;;5069955;28;20201;-82
2021/12/06 10:03:14;;;;;;;97.77;42.00;;;4.40;99.90;;;;;;5068934;28;20209;-82
2021/12/06 10:05:41;;;;;;;106.20;43.07;;;4.40;99.90;;;;;;5050809;28;20194;-81
2021/12/06 10:08:08;;;;;;;102.33;41.90;;;4.40;99.90;;;;;;5055987;28;20208;-81
2021/12/06 10:10:36;;;;;;;100.30;43.37;;;4.40;99.90;;;;;;5068024;28;20534;-81
2021/12/06 10:13:03;;;;;;;105.00;42.33;;;4.40;99.90;;;;;;5069580;28;20204;-82
2021/12/06 10:15:31;;;;;;;81.80;37.97;;;4.40;99.90;;;;;;5070736;28;20207;-81
2021/12/06 10:18:02;;;;;;;87.47;37.70;;;4.40;99.90;;;;;;5070506;28;20649;-82
2021/12/06 10:20:31;;;;;;;88.43;37.67;;;4.30;99.90;;;;;;5068537;28;20590;-81
2021/12/06 10:22:59;;;;;;;82.70;36.10;;;4.30;99.90;;;;;;5070125;28;20232;-81
2021/12/06 10:25:36;;;;;;;75.77;35.47;;;4.20;99.90;;;;;;5061560;28;20212;-81
2021/12/06 10:28:04;;;;;;;75.27;34.93;;;4.20;99.90;;;;;;5050122;28;20209;-82
2021/12/06 10:30:34;;;;;;;87.97;37.00;;;4.30;99.90;;;;;;5049189;28;20296;-80
2021/12/06 10:33:05;;;;;;;85.87;36.80;;;4.30;99.90;;;;;;5060996;28;20918;-82
2021/12/06 10:35:32;;;;;;;84.60;38.13;;;4.30;99.90;;;;;;5069745;28;20197;-81
2021/12/06 10:37:59;;;;;;;83.40;37.83;;;4.30;99.90;;;;;;5069240;28;20213;-82
2021/12/06 10:40:30;;;;;;;85.50;38.87;;;4.30;99.90;;;;;;5068545;28;20648;-81
2021/12/06 10:42:59;;;;;;;82.10;37.87;;;4.30;99.90;;;;;;5069678;28;20945;-80
2021/12/06 10:45:29;;;;;;;86.33;38.33;;;4.40;99.90;;;;;;5068849;28;20228;-82
2021/12/06 10:48:11;;;;;;;88.63;39.97;;;4.30;99.90;;;;;;5062591;28;20194;-82
2021/12/06 10:50:41;;;;;;;88.50;38.97;;;4.30;99.90;;;;;;5048801;28;20225;-81
2021/12/06 10:53:08;;;;;;;96.37;40.97;;;4.30;99.90;;;;;;5066374;28;20229;-80
2021/12/06 10:55:36;;;;;;;97.93;42.30;;;4.30;99.90;;;;;;5070321;28;20209;-82
2021/12/06 10:58:07;;;;;;;97.30;42.93;;;4.30;99.90;;;;;;5068725;28;20292;-81
2021/12/06 11:00:41;;;;;;;104.60;43.87;;;4.30;99.90;;;;;;5069367;28;20185;-82
2021/12/06 11:03:23;;;;;;;108.87;42.87;;;4.40;99.90;;;;;;5070358;28;20233;-82
2021/12/06 11:05:54;;;;;;;106.60;44.00;;;4.40;99.90;;;;;;5069662;28;20197;-82
2021/12/06 11:08:22;;;;;;;95.47;42.73;;;4.40;99.90;;;;;;5070012;28;20246;-80
2021/12/06 11:10:52;;;;;;;101.47;43.37;;;4.40;99.90;;;;;;5070576;28;20201;-81
2021/12/06 11:13:23;;;;;;;115.33;47.97;;;4.40;99.90;;;;;;5069379;28;20930;-81
2021/12/06 11:16:00;;;;;;;109.13;42.50;;;4.50;99.90;;;;;;5070182;28;20197;-82
2021/12/06 11:18:48;;;;;;;111.67;43.20;;;4.60;99.90;;;;;;5058220;28;20225;-81
2021/12/06 11:21:19;;;;;;;102.23;43.00;;;4.60;99.90;;;;;;5049338;28;20221;-82
2021/12/06 11:24:13;;;;;;;105.27;44.90;;;4.70;99.90;;;;;;5050281;28;20236;-81
2021/12/06 11:26:42;;;;;;;102.93;41.60;;;4.70;99.90;;;;;;5063834;28;20212;-83
2021/12/06 11:29:13;;;;;;;100.10;42.30;;;4.70;99.90;;;;;;5065276;28;20221;-83
2021/12/06 11:31:44;;;;;;;91.40;39.63;;;4.80;99.90;;;;;;5050343;28;20205;-83
2021/12/06 11:34:12;;;;;;;96.37;41.63;;;4.80;99.90;;;;;;5051438;28;20601;-81
2021/12/06 11:36:43;;;;;;;92.03;42.73;;;4.90;99.90;;;;;;5058254;28;20220;-82
2021/12/06 11:39:14;;;;;;;90.83;40.83;;;4.90;99.90;;;;;;5069445;28;20215;-81
2021/12/06 11:41:43;;;;;;;94.53;40.83;;;4.90;99.90;;;;;;5059835;28;20225;-82
2021/12/06 11:44:18;;;;;;;94.43;40.27;;;5.00;99.90;;;;;;5053553;28;20237;-81
2021/12/06 11:46:46;;;;;;;85.17;41.23;;;5.00;99.90;;;;;;5068795;28;20195;-80
2021/12/06 11:49:20;;;;;;;82.80;39.03;;;5.00;99.90;;;;;;5070065;28;20202;-81
2021/12/06 11:51:48;;;;;;;83.97;39.70;;;5.10;99.90;;;;;;5069141;28;20244;-83
2021/12/06 11:54:14;;;;;;;87.30;39.53;;;5.10;99.90;;;;;;5068383;28;20667;-82
2021/12/06 11:56:45;;;;;;;72.47;38.20;;;5.10;99.90;;;;;;5060902;28;20212;-81
2021/12/06 11:59:15;;;;;;;74.87;38.30;;;5.10;99.90;;;;;;5048823;28;20525;-81
2021/12/06 12:01:45;;;;;;;69.30;36.47;;;5.10;99.90;;;;;;5067555;28;20197;-82
2021/12/06 12:04:15;;;;;;;71.83;35.97;;;5.10;99.90;;;;;;5068344;28;20236;-81
2021/12/06 12:06:45;;;;;;;76.33;38.57;;;5.10;99.90;;;;;;5067616;28;20231;-82
2021/12/06 12:09:15;;;;;;;69.37;36.17;;;5.10;99.90;;;;;;5057096;28;20754;-80
2021/12/06 12:12:03;;;;;;;66.00;36.20;;;5.10;99.90;;;;;;5047944;28;20198;-84
2021/12/06 12:14:33;;;;;;;64.17;35.10;;;5.10;99.90;;;;;;5048553;28;20249;-80
2021/12/06 12:17:02;;;;;;;67.87;32.90;;;5.10;99.90;;;;;;5065398;28;20217;-83
2021/12/06 12:19:29;;;;;;;62.70;33.23;;;5.10;99.90;;;;;;5068949;28;20554;-83
2021/12/06 12:21:57;;;;;;;52.47;28.67;;;5.20;99.90;;;;;;5061921;28;20949;-81
2021/12/06 12:24:25;;;;;;;58.67;32.57;;;5.20;99.90;;;;;;5048866;28;20234;-82
2021/12/06 12:26:58;;;;;;;58.63;29.43;;;5.10;99.90;;;;;;5049630;28;20198;-81
2021/12/06 12:29:28;;;;;;;50.53;28.07;;;5.10;99.90;;;;;;5049370;28;20201;-83
2021/12/06 12:31:58;;;;;;;54.00;29.60;;;5.00;99.90;;;;;;5049738;28;20770;-83
2021/12/06 12:34:26;;;;;;;55.00;28.23;;;5.00;99.90;;;;;;5065240;28;20208;-80
2021/12/06 12:36:54;;;;;;;48.97;26.87;;;5.10;99.90;;;;;;5066977;28;20478;-80
2021/12/06 12:39:24;;;;;;;48.50;27.33;;;5.00;99.90;;;;;;5066917;28;20212;-79
2021/12/06 12:41:54;;;;;;;46.67;28.07;;;5.00;99.90;;;;;;5057367;28;20209;-80
2021/12/06 12:44:22;;;;;;;52.37;29.20;;;5.00;99.90;;;;;;5052959;28;20221;-80
2021/12/06 12:46:52;;;;;;;47.20;27.10;;;5.10;99.90;;;;;;5050387;28;20202;-80
2021/12/06 12:49:22;;;;;;;48.67;27.53;;;5.10;99.90;;;;;;5047432;28;20204;-81